Date,TemperatureHighF,TemperatureAvgF,TemperatureLowF,DewpointHighF,DewpointAvgF,DewpointLowF,HumidityHigh,HumidityAvg,HumidityLow,PressureMaxIn,PressureMinIn,WindSpeedMaxMPH,WindSpeedAvgMPH,GustSpeedMaxMPH,PrecipitationSumIn
2013-1-1,35,32,30,32,31,28,100,93,90,30.50,30.36,4,1,7,0.10
2013-1-2,44,32,24,36,27,22,99,85,53,30.37,30.22,2,0,5,0.01
2013-1-3,44,33,23,34,26,21,100,79,51,30.23,30.13,6,1,14,0.01
2013-1-4,44,42,37,41,39,36,94,91,87,30.31,30.19,3,1,5,0.00
2013-1-5,40,38,35,35,33,30,86,83,77,30.23,30.16,3,1,6,0.01
2013-1-6,43,41,36,41,39,33,98,90,85,30.23,30.03,5,2,10,0.32
2013-1-7,49,47,44,48,45,42,100,95,94,30.21,30.06,3,1,7,0.82
2013-1-8,51,49,44,49,48,43,100,94,89,30.07,29.89,8,2,14,0.30
2013-1-9,40,37,33,38,36,31,95,94,92,30.00,29.81,2,0,6,0.76
2013-1-10,42,36,30,38,34,29,96,93,82,30.12,29.99,4,0,6,0.02
2013-1-11,41,33,26,35,28,24,96,85,66,30.33,30.28,6,1,10,0.01
2013-1-12,39,30,24,33,27,22,95,89,71,30.44,30.33,3,0,5,0.00
2013-1-13,34,26,20,29,24,18,94,90,77,30.52,30.43,3,0,6,0.01
2013-1-14,33,30,27,32,28,25,100,91,89,30.58,30.51,3,1,5,0.02
2013-1-15,37,34,32,34,32,29,95,93,88,30.69,30.58,5,1,7,0.01
2013-1-16,35,33,31,32,31,30,100,93,90,30.68,30.51,4,1,7,0.00
2013-1-17,36,32,30,33,31,28,95,94,90,30.52,30.33,3,2,6,0.00
2013-1-18,44,33,27,37,30,25,96,90,74,30.34,30.26,4,1,6,0.01
2013-1-19,38,33,30,34,31,29,95,92,82,30.37,30.29,6,2,10,0.00
2013-1-20,41,34,30,35,31,29,94,88,77,30.38,30.26,3,1,7,0.00
2013-1-21,42,34,23,32,28,21,95,81,68,30.25,30.14,4,1,6,0.00
2013-1-22,39,36,34,30,29,27,84,75,68,30.11,29.93,4,2,7,0.00
2013-1-23,35,34,34,33,32,31,94,92,87,30.22,29.91,4,2,6,0.12
2013-1-24,42,38,34,41,36,33,95,93,87,30.25,30.10,5,1,11,0.20
2013-1-25,51,44,39,47,42,38,95,91,86,30.01,29.95,2,0,5,0.03
2013-1-26,46,42,39,43,40,38,95,92,84,30.09,29.96,1,0,3,0.18
2013-1-27,42,40,37,40,38,36,96,94,91,30.14,30.05,2,1,5,0.28
2013-1-28,43,42,39,42,40,38,96,95,93,30.19,30.12,4,1,15,0.55
2013-1-29,49,45,42,47,43,41,96,94,87,30.46,30.19,4,1,15,0.12
2013-1-30,51,48,47,49,46,45,96,94,91,30.44,30.41,3,1,6,0.28
2013-1-31,49,47,44,46,45,43,96,94,90,30.44,30.34,3,0,4,0.06
2013-2-1,52,47,43,46,43,41,91,85,77,30.35,30.30,6,3,10,0.00
2013-2-2,53,44,34,45,40,33,95,86,74,30.32,30.25,3,0,5,0.00
2013-2-3,46,44,35,43,42,33,95,91,86,30.32,30.25,2,0,6,0.00
2013-2-4,47,44,41,42,41,39,93,89,82,29.96,29.94,2,0,4,0.00
2013-2-5,54,48,44,45,42,40,91,81,62,30.01,29.89,8,3,17,0.10
2013-2-6,48,47,42,44,42,41,93,83,77,30.09,29.82,5,2,14,0.07
2013-2-7,49,41,30,39,35,28,93,80,60,30.19,30.01,6,1,9,0.00
2013-2-8,49,38,29,42,33,27,96,84,62,30.31,30.19,7,1,11,0.01
2013-2-9,48,45,38,44,41,36,92,87,79,30.31,30.25,3,0,5,0.01
2013-2-10,47,45,40,42,38,37,92,77,71,30.35,30.31,5,2,10,0.00
2013-2-11,48,44,43,42,42,41,95,91,79,30.38,30.35,3,1,5,0.05
2013-2-12,51,49,46,49,47,45,96,93,88,30.46,30.41,3,0,5,0.14
2013-2-13,52,45,34,46,40,33,95,83,71,30.53,30.45,6,2,9,0.02
2013-2-14,47,43,34,44,41,33,95,92,86,30.58,30.53,4,0,5,0.00
2013-2-15,58,51,40,48,45,38,93,79,68,30.41,30.20,7,3,12,0.00
2013-2-16,49,43,40,43,40,37,98,88,78,30.27,30.24,4,1,15,0.07
2013-2-17,50,44,39,42,38,37,96,80,63,30.30,30.15,5,1,9,0.00
2013-2-18,46,44,41,38,37,35,89,78,70,29.99,29.77,6,2,11,0.03
2013-2-19,53,46,33,41,37,31,91,72,54,30.00,29.78,5,2,10,0.00
2013-2-20,45,42,40,41,39,37,99,89,79,30.09,30.00,4,1,7,0.24
2013-2-21,45,42,39,42,40,38,95,92,86,30.16,30.09,4,1,10,0.28
2013-2-22,48,42,37,46,40,34,94,91,85,30.02,29.85,7,3,15,0.89
2013-2-23,48,40,34,43,36,32,95,85,71,30.44,30.29,11,2,14,0.33
2013-2-24,48,46,35,40,37,34,95,70,64,30.43,30.04,5,3,15,0.00
2013-2-25,51,42,36,42,37,34,93,84,65,30.37,30.19,9,3,23,0.42
2013-2-26,48,46,42,40,37,36,86,73,64,30.36,30.24,7,2,12,0.01
2013-2-27,51,48,41,44,42,40,94,81,74,30.31,30.24,6,2,12,0.02
2013-2-28,54,52,49,52,50,48,96,95,93,30.40,30.25,3,0,9,0.72
2013-3-1,59,54,46,54,51,45,95,90,78,30.43,30.33,4,1,10,0.06
2013-3-2,56,47,39,52,43,37,93,88,79,30.27,30.15,6,2,13,0.06
2013-3-3,54,45,34,42,38,33,94,79,60,30.30,30.27,6,2,16,0.03
2013-3-4,58,47,34,36,31,27,87,57,31,30.14,29.92,7,2,11,0.01
2013-3-5,49,41,32,42,37,29,94,88,73,29.93,29.73,5,1,12,0.16
2013-3-6,46,44,41,44,42,39,95,94,90,29.88,29.58,3,1,5,0.31
2013-3-7,57,49,38,43,39,36,91,70,48,30.07,30.01,5,2,11,0.01
2013-3-8,55,48,39,43,40,36,88,74,55,30.21,30.07,7,4,13,0.00
2013-3-9,59,50,38,45,40,35,93,70,52,30.51,30.43,4,2,9,0.00
2013-3-10,48,46,44,45,44,41,93,91,86,30.48,30.43,3,0,5,0.06
2013-3-11,55,51,45,48,47,44,95,86,74,30.40,30.25,4,1,8,0.04
2013-3-12,58,54,50,51,49,47,92,83,73,30.19,30.15,3,1,9,0.01
2013-3-13,59,56,52,51,49,47,88,76,69,30.22,30.10,4,1,9,0.03
2013-3-14,55,51,47,49,47,45,94,85,73,30.14,30.07,4,1,9,0.03
2013-3-15,63,55,47,53,49,45,95,81,65,30.23,30.18,6,2,13,0.00
2013-3-16,51,45,40,48,42,37,93,88,77,30.19,30.02,7,3,16,0.38
2013-3-17,51,45,39,42,38,34,94,77,59,30.30,30.11,8,3,23,0.27
2013-3-18,56,46,34,44,38,32,92,75,52,30.27,30.20,6,2,23,0.08
2013-3-19,48,42,33,45,38,31,94,87,73,30.20,29.66,4,1,10,0.25
2013-3-20,54,44,36,47,40,34,94,88,74,30.14,29.64,11,5,24,0.84
2013-3-21,49,41,37,42,37,34,94,86,71,30.30,30.23,11,3,18,0.29
2013-3-22,51,40,33,42,36,31,94,85,61,30.40,30.30,12,2,17,0.18
2013-3-23,54,44,35,38,33,28,90,68,41,30.41,30.30,4,1,9,0.00
2013-3-24,58,44,34,40,34,32,93,72,41,30.30,30.10,4,1,7,0.00
2013-3-25,66,56,41,41,39,36,89,55,37,30.06,29.91,3,1,7,0.00
2013-3-26,61,54,48,48,46,40,91,73,53,30.02,29.97,5,1,10,0.00
2013-3-27,66,56,46,49,46,42,95,71,46,29.97,29.90,6,2,10,0.07
2013-3-28,66,57,48,53,48,41,96,73,45,30.15,30.05,5,1,11,0.22
2013-3-29,69,57,47,53,48,45,94,74,48,30.23,30.15,5,1,11,0.01
2013-3-30,73,62,39,52,48,37,95,62,46,30.20,30.00,7,4,14,0.00
2013-3-31,79,67,52,52,48,46,84,54,31,30.01,29.88,7,2,16,0.00
2013-4-1,69,56,46,53,48,44,93,77,51,30.18,30.03,7,1,13,0.00
2013-4-2,62,56,47,51,49,44,89,78,64,30.22,30.16,5,2,10,0.00
2013-4-3,68,60,49,54,51,45,87,73,57,30.15,29.91,3,0,7,0.00
2013-4-4,59,54,51,56,51,47,94,90,77,29.92,29.67,6,1,16,0.42
2013-4-5,57,53,50,54,51,48,95,91,84,29.92,29.78,4,1,10,0.58
2013-4-6,60,51,43,50,45,41,94,81,59,29.97,29.71,10,3,18,0.58
2013-4-7,54,46,41,48,43,39,95,88,72,29.96,29.49,11,3,19,0.38
2013-4-8,56,49,41,47,43,38,92,78,62,30.31,30.13,8,2,15,0.00
2013-4-9,56,47,36,46,41,34,95,82,66,30.37,30.25,4,1,13,0.00
2013-4-10,60,53,48,51,46,41,93,78,61,30.33,30.07,10,4,17,0.27
2013-4-11,59,52,40,50,42,36,85,69,51,30.34,30.22,9,3,17,0.06
2013-4-12,53,47,39,45,43,38,93,86,69,30.07,29.82,7,1,12,0.23
2013-4-13,50,45,40,45,41,38,94,85,71,30.08,30.02,10,3,17,0.78
2013-4-14,56,44,37,44,40,35,95,86,58,30.08,29.96,7,1,15,0.29
2013-4-15,58,51,37,46,41,35,96,71,49,30.22,29.98,11,3,19,0.05
2013-4-16,60,54,40,48,40,33,90,61,37,30.40,30.19,8,3,16,0.01
2013-4-17,63,54,42,46,42,38,86,65,43,30.50,30.43,6,2,13,0.00
2013-4-18,59,53,48,48,46,42,93,79,61,30.49,30.30,4,1,9,0.03
2013-4-19,58,53,49,52,48,46,94,83,74,30.30,30.15,7,3,15,0.53
2013-4-20,60,53,46,48,45,42,89,74,63,30.35,30.30,9,3,15,0.08
2013-4-21,60,50,42,48,44,38,93,81,60,30.35,30.26,6,1,15,0.00
2013-4-22,65,51,38,44,38,30,93,64,35,30.48,30.35,9,3,15,0.00
2013-4-23,68,61,46,42,36,30,82,42,27,30.33,30.18,9,4,22,0.00
2013-4-24,74,63,42,46,38,32,86,44,24,30.29,30.04,9,3,16,0.00
2013-4-25,76,63,48,53,48,40,88,60,34,30.19,30.05,8,3,17,0.00
2013-4-26,78,65,48,53,45,38,88,50,28,30.27,30.18,5,2,12,0.00
2013-4-27,61,56,47,49,47,41,86,71,63,30.28,30.25,3,1,9,0.00
2013-4-28,58,53,50,47,46,44,90,77,62,30.14,30.07,3,1,9,0.08
2013-4-29,58,50,39,45,38,34,88,65,47,30.25,30.17,11,4,23,0.16
2013-4-30,59,52,39,43,37,33,80,58,41,30.48,30.31,9,4,18,0.00
2013-5-1,69,63,53,40,36,32,53,38,26,30.54,30.47,6,2,15,0.00
2013-5-2,78,68,52,46,43,37,66,42,24,30.42,30.28,9,4,18,0.00
2013-5-3,78,70,52,50,44,40,67,40,29,30.33,30.17,11,4,18,0.00
2013-5-4,82,67,45,52,46,39,90,51,29,30.17,29.92,11,4,21,0.00
2013-5-5,87,76,52,52,46,41,72,37,22,29.95,29.70,7,2,21,0.00
2013-5-6,68,68,68,54,54,54,62,62,62,29.88,29.88,3,2,6,0.00